Terminal Aerodrome Forecast
Issued by NWS San Angelo, TX

Home | Current Version | Previous Version | Text Only | Print | Product List | Glossary On
Versions: 1 2 3 4 5 6 7 8 9 10 11
832
FTUS44 KSJT 252320
TAFABI
TAF
KABI 252320Z 2600/2624 24016G26KT P6SM BKN250
     FM260100 22011KT P6SM OVC250
     FM260800 33010KT P6SM BKN080 BKN250
     FM261500 34015G25KT P6SM BKN035 BKN250=

USA.gov is the U.S. government's official web portal to all federal, state and local government web resources and services.